City Of Joliet — WDC2653 — position and weather

sailwx.info

Track history (hours):
 
Tides and Currents Weather Stations Pressure Air Temp Water Temp Dewpoint Dewpoint Depression Visibility Wind Speed Wind Dir Waves Ship Positions

City Of Joliet

Owner: Kirby Inland Marine LP, Houston, TX. More information available from US FCC via Universal Licensing System and Coast Guard Vessel Documentation Center.

Last reported at 2017-Nov-10 14:20 UTC. Time now 2017-Nov-22 14:46 UTC.
Position N 32°44' W 091°04'.
Warning: this ship's position is 12 days out of date.

Length 231 m; draft 2.7 m.

Type: . MMSI: 365947464.

Date/timePositionNaut miles runAvg speedWind from/ knotsBaromVisibWave heightAir tempDewpointWater temp
2017-Nov-10 14:20N 32°44' W 091°04'7 3.9
2017-Nov-10 12:27N 32°38' W 091°09'1 2.5
2017-Nov-10 11:53N 32°37' W 091°09'0 0.1
2017-Nov-10 10:18N 32°37' W 091°09'1 4.2
2017-Nov-10 10:01N 32°36' W 091°08'6 4.3
2017-Nov-10 08:42N 32°30' W 091°07'1 5.4
2017-Nov-10 08:28N 32°29' W 091°07'2 5.1
2017-Nov-10 08:01N 32°27' W 091°05'2 5.0
2017-Nov-10 07:30N 32°26' W 091°02'2 4.8
2017-Nov-10 07:00N 32°25' W 090°60'1 1.4
2017-Nov-10 06:30N 32°24' W 090°59'2 4.6
2017-Nov-10 06:01N 32°22' W 091°00'2 4.3
2017-Nov-10 05:31N 32°21' W 090°58'3 5.0
2017-Nov-10 05:01N 32°21' W 090°55'2 3.9
2017-Nov-10 04:30N 32°19' W 090°54'2 3.4
2017-Nov-10 04:00N 32°18' W 090°56'0 0.1
2017-Nov-10 03:31N 32°18' W 090°56'0 0.1
2017-Nov-10 03:01N 32°18' W 090°56'0 0.0
2017-Nov-10 02:31N 32°18' W 090°56'1 2.8
2017-Nov-10 02:01N 32°17' W 090°57'2 4.6
2017-Nov-10 01:30N 32°15' W 090°59'2 4.5
2017-Nov-10 01:00N 32°13' W 090°59'1 2.3
2017-Nov-10 00:30N 32°12' W 090°59'1 2.1
2017-Nov-09 23:59N 32°11' W 090°60'2 4.8
2017-Nov-09 23:31N 32°08' W 091°00'2 4.4
2017-Nov-09 23:01N 32°07' W 091°02'2 4.9
2017-Nov-09 22:30N 32°08' W 091°05'5 1.7
2017-Nov-09 19:24N 32°03' W 091°04'  
2017-Nov-06 02:30N 32°36' W 091°09'4 8.1
2017-Nov-06 02:00N 32°40' W 091°08'  
Track history (hours):
 
Tides and Currents Weather Stations Pressure Air Temp Water Temp Dewpoint Dewpoint Depression Visibility Wind Speed Wind Dir Waves Ship Positions

City Of Joliet

Owner: Kirby Inland Marine LP, Houston, TX. More information available from US FCC via Universal Licensing System and Coast Guard Vessel Documentation Center.

Last reported at 2017-Nov-10 14:20 UTC. Time now 2017-Nov-22 14:46 UTC.
Position N 32°44' W 091°04'.
Warning: this ship's position is 12 days out of date.

Length 231 m; draft 2.7 m.

Type: . MMSI: 365947464.

Date/timePositionNaut miles runAvg speedWind from/ knotsBaromVisibWave heightAir tempDewpointWater temp
2017-Nov-10 14:20N 32°44' W 091°04'7 3.9
2017-Nov-10 12:27N 32°38' W 091°09'1 2.5
2017-Nov-10 11:53N 32°37' W 091°09'0 0.1
2017-Nov-10 10:18N 32°37' W 091°09'1 4.2
2017-Nov-10 10:01N 32°36' W 091°08'6 4.3
2017-Nov-10 08:42N 32°30' W 091°07'1 5.4
2017-Nov-10 08:28N 32°29' W 091°07'2 5.1
2017-Nov-10 08:01N 32°27' W 091°05'2 5.0
2017-Nov-10 07:30N 32°26' W 091°02'2 4.8
2017-Nov-10 07:00N 32°25' W 090°60'1 1.4
2017-Nov-10 06:30N 32°24' W 090°59'2 4.6
2017-Nov-10 06:01N 32°22' W 091°00'2 4.3
2017-Nov-10 05:31N 32°21' W 090°58'3 5.0
2017-Nov-10 05:01N 32°21' W 090°55'2 3.9
2017-Nov-10 04:30N 32°19' W 090°54'2 3.4
2017-Nov-10 04:00N 32°18' W 090°56'0 0.1
2017-Nov-10 03:31N 32°18' W 090°56'0 0.1
2017-Nov-10 03:01N 32°18' W 090°56'0 0.0
2017-Nov-10 02:31N 32°18' W 090°56'1 2.8
2017-Nov-10 02:01N 32°17' W 090°57'2 4.6
2017-Nov-10 01:30N 32°15' W 090°59'2 4.5
2017-Nov-10 01:00N 32°13' W 090°59'1 2.3
2017-Nov-10 00:30N 32°12' W 090°59'1 2.1
2017-Nov-09 23:59N 32°11' W 090°60'2 4.8
2017-Nov-09 23:31N 32°08' W 091°00'2 4.4
2017-Nov-09 23:01N 32°07' W 091°02'2 4.9
2017-Nov-09 22:30N 32°08' W 091°05'5 1.7
2017-Nov-09 19:24N 32°03' W 091°04'  
2017-Nov-06 02:30N 32°36' W 091°09'4 8.1
2017-Nov-06 02:00N 32°40' W 091°08'  

Dump ship's entire track history